Airfield :
LOGIN :

Register | Disclaimer

   EN    FR    IT 

 










Legend :    VFR   Marginal VFR   IFR   Intensive IFR   Very Intensive IFR
Visi :
Ceiling :
>= 8 km
>= 3000ft
5 to 8 km
1000 to 3000 ft
1500m to 5 km
500 to 1000 ft
800 to 1500m
200 to 500 ft
< 800m
< 200 ft
Symbols :   Thunderstorms  Fog  Heavy snow  Heavy precipitations  Wind > 20 kt
SIGMETs :     Misc.  Thunderstorms  Icing  Turbulence  Mountain Waves  Volcanic Ashes






- Airport Elevation : 433 ft
- IATA code : CCF


LFMK - Carcassonne

CURRENT METAR :
  • 152330Z AUTO 15003KT CAVOK 09/07 Q1019

EXPIRED METARs :
  • 152300Z AUTO VRB03KT CAVOK 10/07 Q1019
  • 152230Z AUTO VRB03KT CAVOK 10/07 Q1019
  • 152200Z AUTO 29005KT CAVOK 10/07 Q1019
  • 152130Z AUTO VRB01KT CAVOK 11/07 Q1020
  • 152100Z AUTO 23004KT 190V260 CAVOK 12/07 Q1020

TAF TAF LFMK
Valid from the 15 at 15:00 until the 16 at 15:00 UTC


151400Z 1515/1615 28015KT CAVOK
TEMPO 1515/1521 28025G35KT
BECMG 1521/1523 VRB03KT
BECMG 1607/1609 08012KT



MET'MAP, your aeronautical weather chart ! - Copyright ORBIFLY December 2007 - Disclaimer

ORBIFLY MET'MAP TEAM :

Programming & Development : Alexandra Zaïnal
Concept & Development : Baudouin d'Aumeries
Co-Development & Prog : Marc-Olivier Méhu
Technical & hardware support : Manuel Goepfert

Contact : metmap@orbifly.com




SOURCES & CREDITS :

   NOAA